Skip Navigation Links
NOAA logo - Click to go to the NOAA homepage
NOAA's National Weather Service
Alaska Aviation Weather Unit
  NWS logo - Click to go to the NWS homepage
Left Navbar Graphic     09 AKDT = 17 GMT

   
NOAA is celebrating 200 years of science, service, and stewardship. Visit the NOAA 200th celebration Web site to learn more.
USA.gov is the U.S. Government's official Web portal to all Federal, state and local government Web resources and services.
Facebook
NWS on Facebook

Important Change Regarding the AAWU Web Presence

 

Over the last several months, the AAWU has been working to navigate its webpages to a nationally supported server. Security, as well as other needs, have necessitated the change.  In the process, we have made an effort to enhance the functionality of our website, as well as some of our products. As of June 20, 2017, aawu.arh.noaa.gov will be discontinued. The new AAWU web address is weather.gov/aawu. It is now live and will run in-parallel with the old site until it is discontinued. Please send any feedback or questions regarding the new webpages to nws.ar.aawu.webauthors@noaa.gov.  Thank you for your patience during this time of transition.
AAWU Home :: Display TAF Add Bookmark
METAR PABV 231156Z AUTO 00000KT 10SM OVC040 08/03 A3001 RMK AO2
 SLP169 70001 T00780028 10111 20078 51005 $=

METAR PABV 231356Z AUTO 00000KT 10SM BKN045 OVC060 07/04 A3000 RMK AO2
     SLP169 T00720039 $=

METAR PABV 231456Z AUTO 00000KT 10SM SCT049 07/04 A3001 RMK AO2 SLP171
     T00720039 52001 $=

METAR PABV 231556Z AUTO 02004KT 10SM SCT060 08/04 A3001 RMK AO2 SLP170
     T00780039 $=

METAR PABV 231656Z AUTO 00000KT 10SM BKN043 08/03 A3001 RMK AO2 SLP171
     T00830028 $=


NOAA's National Weather Service
Alaska Aviation Weather Unit
6930 Sand Lake Road
Anchorage, AK 99502-1845
Disclaimer
Credits
Glossary
Privacy Policy
About Us
Career Opportunities
Contact AAWU Internet Services Site last modified: April, 17th 2012